createdAt,value
2018-06-16T00:00:01.378Z,40.10
2018-06-16T00:02:29.439Z,39.40
2018-06-16T00:04:57.494Z,40.20
2018-06-16T00:07:25.555Z,40.10
2018-06-16T00:09:53.648Z,39.80
2018-06-16T00:12:21.707Z,40.10
2018-06-16T00:14:49.745Z,40.00
2018-06-16T00:17:17.794Z,39.80
2018-06-16T00:19:46.114Z,39.80
2018-06-16T00:22:14.187Z,39.80
2018-06-16T00:24:42.234Z,39.60
2018-06-16T00:27:10.338Z,39.40
2018-06-16T00:29:38.430Z,39.50
2018-06-16T00:32:06.514Z,39.50
2018-06-16T00:34:34.639Z,39.40
2018-06-16T00:37:02.708Z,39.40
2018-06-16T00:39:30.783Z,39.40
2018-06-16T00:41:58.890Z,39.10
2018-06-16T00:44:27.031Z,39.00
2018-06-16T00:46:55.107Z,39.00
2018-06-16T00:49:23.184Z,39.30
2018-06-16T00:51:51.257Z,39.30
2018-06-16T00:54:19.330Z,39.20
2018-06-16T00:56:57.471Z,39.30
2018-06-16T00:59:25.550Z,39.40
2018-06-16T01:01:53.631Z,39.30
2018-06-16T01:04:21.834Z,39.30
2018-06-16T01:06:49.902Z,39.30
2018-06-16T01:09:17.974Z,39.40
2018-06-16T01:11:46.076Z,39.20
2018-06-16T01:14:14.138Z,38.80
2018-06-16T01:16:42.209Z,39.20
2018-06-16T01:19:10.286Z,39.00
2018-06-16T01:21:38.370Z,39.20
2018-06-16T01:24:06.451Z,39.20
2018-06-16T01:26:34.526Z,39.10
2018-06-16T01:29:02.590Z,39.20
2018-06-16T01:31:30.651Z,39.70
2018-06-16T01:33:58.814Z,39.10
2018-06-16T01:36:26.893Z,39.20
2018-06-16T01:38:54.975Z,39.00
2018-06-16T01:41:23.034Z,39.20
2018-06-16T01:43:51.135Z,39.00
2018-06-16T01:46:19.376Z,39.00
2018-06-16T01:48:47.454Z,39.10
2018-06-16T01:51:15.539Z,39.00
2018-06-16T01:53:43.627Z,39.00
2018-06-16T01:56:11.758Z,39.00
2018-06-16T01:58:40.100Z,39.10
2018-06-16T02:01:08.194Z,39.10
2018-06-16T02:03:36.258Z,39.00
2018-06-16T02:06:04.538Z,39.00
2018-06-16T02:08:32.626Z,38.90
2018-06-16T02:11:00.734Z,38.80
2018-06-16T02:13:28.797Z,39.00
2018-06-16T02:15:56.889Z,39.00
2018-06-16T02:18:24.958Z,39.20
2018-06-16T02:20:53.026Z,38.80
2018-06-16T02:23:21.121Z,39.10
2018-06-16T02:25:49.196Z,39.10
2018-06-16T02:28:17.554Z,39.10
2018-06-16T02:30:45.682Z,39.10
2018-06-16T02:33:13.743Z,39.10
2018-06-16T02:35:42.062Z,38.90
2018-06-16T02:38:10.126Z,39.10
2018-06-16T02:40:38.226Z,39.10
2018-06-16T02:43:06.316Z,39.10
2018-06-16T02:45:34.663Z,39.10
2018-06-16T02:48:02.787Z,39.20
2018-06-16T02:50:31.043Z,39.10
2018-06-16T02:52:59.287Z,39.20
2018-06-16T02:55:27.376Z,39.30
2018-06-16T02:57:55.463Z,39.00
2018-06-16T03:00:23.538Z,39.40
2018-06-16T03:02:51.647Z,39.40
2018-06-16T03:05:19.738Z,39.40
2018-06-16T03:07:47.842Z,39.50
2018-06-16T03:10:15.905Z,39.50
2018-06-16T03:15:18.602Z,39.40
2018-06-16T03:17:47.184Z,39.50
2018-06-16T03:20:15.267Z,39.50
2018-06-16T03:22:43.346Z,39.40
2018-06-16T03:25:11.406Z,39.60
2018-06-16T03:27:39.495Z,39.60
2018-06-16T03:30:07.568Z,39.80
2018-06-16T03:32:35.634Z,39.80
2018-06-16T03:35:03.694Z,39.60
2018-06-16T03:37:31.766Z,39.60
2018-06-16T03:39:59.839Z,39.80
2018-06-16T03:42:27.898Z,39.70
2018-06-16T03:44:55.959Z,39.60
2018-06-16T03:47:24.106Z,40.80
2018-06-16T03:49:52.335Z,40.20
2018-06-16T03:52:20.406Z,40.10
2018-06-16T03:54:48.479Z,40.20
2018-06-16T03:57:16.554Z,40.10
2018-06-16T04:02:12.507Z,40.30
2018-06-16T04:04:40.566Z,40.30
2018-06-16T04:07:08.639Z,40.30
2018-06-16T04:12:04.651Z,40.20
2018-06-16T04:14:32.708Z,40.20
2018-06-16T04:17:05.275Z,40.20
2018-06-16T04:19:33.343Z,40.20
2018-06-16T04:22:01.437Z,40.30
2018-06-16T04:24:29.515Z,40.30
2018-06-16T04:29:25.580Z,41.00
2018-06-16T04:31:53.697Z,40.40
2018-06-16T04:34:22.040Z,40.40
2018-06-16T04:36:50.102Z,40.50
2018-06-16T04:39:18.162Z,40.50
2018-06-16T04:41:46.239Z,40.50
2018-06-16T04:44:14.350Z,40.60
2018-06-16T04:46:42.470Z,40.70
2018-06-16T04:49:10.559Z,40.70
2018-06-16T04:51:38.908Z,40.70
2018-06-16T04:56:34.921Z,40.80
2018-06-16T04:59:02.994Z,40.80
2018-06-16T05:01:31.059Z,40.90
2018-06-16T05:03:59.130Z,40.90
2018-06-16T05:06:27.266Z,40.90
2018-06-16T05:08:55.317Z,41.00
2018-06-16T05:11:23.437Z,41.00
2018-06-16T05:13:51.530Z,41.10
2018-06-16T05:16:19.600Z,41.20
2018-06-16T05:18:47.674Z,41.20
2018-06-16T05:21:15.743Z,41.30
2018-06-16T05:23:43.827Z,41.40
2018-06-16T05:26:11.910Z,41.40
2018-06-16T05:28:40.039Z,41.50
2018-06-16T05:31:09.418Z,41.50
2018-06-16T05:33:37.519Z,41.70
2018-06-16T05:36:05.645Z,41.60
2018-06-16T05:38:33.723Z,41.90
2018-06-16T05:41:01.826Z,42.10
2018-06-16T05:43:29.905Z,42.00
2018-06-16T05:45:57.987Z,42.10
2018-06-16T05:48:26.303Z,42.10
2018-06-16T05:50:54.679Z,42.20
2018-06-16T05:53:22.797Z,42.20
2018-06-16T05:55:50.853Z,42.30
2018-06-16T05:58:18.933Z,42.40
2018-06-16T06:00:47.272Z,42.50
2018-06-16T06:03:15.438Z,42.40
2018-06-16T06:05:43.503Z,42.70
2018-06-16T06:08:11.631Z,42.90
2018-06-16T06:10:39.963Z,43.10
2018-06-16T06:13:08.039Z,43.20
2018-06-16T06:15:36.204Z,43.10
2018-06-16T06:18:04.254Z,43.40
2018-06-16T06:20:32.641Z,43.70
2018-06-16T06:23:00.719Z,43.60
2018-06-16T06:25:28.797Z,43.80
2018-06-16T06:27:57.101Z,46.20
2018-06-16T06:30:25.179Z,45.20
2018-06-16T06:32:53.251Z,44.90
2018-06-16T06:35:21.430Z,45.70
2018-06-16T06:37:49.518Z,45.40
2018-06-16T06:40:17.614Z,45.60
2018-06-16T06:42:45.667Z,45.80
2018-06-16T06:45:14.031Z,45.40
2018-06-16T06:47:42.094Z,45.60
2018-06-16T06:50:10.193Z,45.80
2018-06-16T06:52:38.264Z,45.90
2018-06-16T06:55:06.338Z,46.30
2018-06-16T06:57:34.730Z,46.20
2018-06-16T07:00:02.830Z,46.30
2018-06-16T07:02:30.902Z,46.60
2018-06-16T07:04:59.009Z,46.50
2018-06-16T07:07:27.160Z,46.60
2018-06-16T07:09:55.239Z,46.70
2018-06-16T07:12:23.566Z,46.80
2018-06-16T07:14:51.643Z,46.80
2018-06-16T07:17:19.722Z,47.00
2018-06-16T07:19:47.896Z,47.00
2018-06-16T07:22:16.255Z,46.90
2018-06-16T07:24:44.330Z,47.10
2018-06-16T07:27:12.502Z,47.00
2018-06-16T07:29:40.514Z,47.10
2018-06-16T07:32:08.578Z,46.90
2018-06-16T07:34:36.671Z,46.90
2018-06-16T07:37:04.730Z,47.00
2018-06-16T07:39:32.818Z,47.10
2018-06-16T07:42:00.922Z,47.10
2018-06-16T07:44:28.998Z,47.00
2018-06-16T07:46:57.062Z,47.00
2018-06-16T07:49:25.130Z,46.50
2018-06-16T07:51:53.202Z,47.10
2018-06-16T07:54:21.388Z,47.30
2018-06-16T07:56:49.820Z,47.30
2018-06-16T07:59:17.887Z,46.70
2018-06-16T08:01:46.253Z,46.90
2018-06-16T08:04:14.315Z,46.90
2018-06-16T08:06:42.408Z,47.60
2018-06-16T08:09:11.374Z,46.90
2018-06-16T08:11:39.650Z,47.10
2018-06-16T08:14:07.764Z,47.10
2018-06-16T08:16:35.855Z,47.40
2018-06-16T08:19:03.926Z,47.40
2018-06-16T08:21:32.019Z,47.50
2018-06-16T08:24:00.358Z,47.70
2018-06-16T08:26:28.436Z,47.50
2018-06-16T08:28:56.506Z,47.30
2018-06-16T08:31:24.887Z,47.40
2018-06-16T08:33:52.950Z,47.50
2018-06-16T08:36:21.028Z,47.40
2018-06-16T08:38:49.105Z,47.50
2018-06-16T08:41:17.626Z,47.40
2018-06-16T08:43:45.997Z,47.30
2018-06-16T08:46:14.063Z,47.60
2018-06-16T08:48:42.183Z,47.50
2018-06-16T08:51:10.253Z,47.70
2018-06-16T08:53:38.886Z,47.50
2018-06-16T08:56:07.034Z,47.80
2018-06-16T08:58:35.095Z,47.60
2018-06-16T09:01:03.169Z,47.80
2018-06-16T09:03:31.234Z,48.00
2018-06-16T09:05:59.608Z,47.80
2018-06-16T09:08:27.670Z,48.00
2018-06-16T09:10:56.014Z,47.80
2018-06-16T09:13:24.082Z,48.00
2018-06-16T09:15:52.178Z,47.90
2018-06-16T09:18:20.248Z,48.40
2018-06-16T09:20:48.305Z,48.30
2018-06-16T09:23:16.611Z,48.10
2018-06-16T09:25:44.692Z,48.30
2018-06-16T09:28:12.762Z,48.20
2018-06-16T09:30:40.825Z,48.20
2018-06-16T09:33:08.979Z,48.50
2018-06-16T09:35:37.054Z,48.70
2018-06-16T09:38:05.267Z,48.90
2018-06-16T09:40:33.409Z,48.70
2018-06-16T09:43:01.791Z,49.00
2018-06-16T09:45:29.961Z,48.90
2018-06-16T09:47:58.043Z,49.10
2018-06-16T09:50:26.162Z,49.20
2018-06-16T09:52:54.227Z,49.10
2018-06-16T09:55:22.298Z,49.90
2018-06-16T09:57:50.570Z,49.70
2018-06-16T10:00:24.059Z,49.90
2018-06-16T10:02:52.646Z,49.80
2018-06-16T10:05:20.711Z,49.90
2018-06-16T10:07:48.786Z,50.00
2018-06-16T10:10:16.846Z,50.20
2018-06-16T10:12:44.950Z,50.30
2018-06-16T10:15:13.255Z,50.30
2018-06-16T10:17:41.328Z,50.30
2018-06-16T10:20:09.576Z,50.20
2018-06-16T10:22:37.643Z,50.20
2018-06-16T10:25:05.754Z,50.10
2018-06-16T10:27:33.827Z,50.10
2018-06-16T10:30:01.931Z,50.20
2018-06-16T10:32:29.999Z,50.20
2018-06-16T10:34:58.061Z,50.20
2018-06-16T10:37:26.137Z,49.90
2018-06-16T10:39:54.518Z,50.20
2018-06-16T10:42:22.599Z,50.20
2018-06-16T10:44:50.690Z,50.00
2018-06-16T10:47:18.991Z,50.80
2018-06-16T10:49:47.038Z,50.00
2018-06-16T10:52:15.147Z,49.90
2018-06-16T10:54:43.209Z,49.90
2018-06-16T10:57:11.518Z,49.80
2018-06-16T10:59:39.983Z,49.90
2018-06-16T11:02:08.045Z,49.90
2018-06-16T11:04:36.114Z,49.80
2018-06-16T11:07:04.434Z,49.70
2018-06-16T11:09:32.503Z,49.60
2018-06-16T11:12:00.571Z,49.90
2018-06-16T11:14:28.635Z,50.30
2018-06-16T11:16:56.707Z,50.30
2018-06-16T11:19:25.032Z,50.20
2018-06-16T11:21:53.386Z,50.10
2018-06-16T11:24:21.446Z,49.70
2018-06-16T11:26:49.527Z,49.60
2018-06-16T11:29:17.616Z,50.20
2018-06-16T11:31:45.679Z,49.60
2018-06-16T11:34:13.738Z,49.60
2018-06-16T11:36:41.831Z,49.70
2018-06-16T11:39:11.274Z,49.60
2018-06-16T11:41:39.446Z,49.70
2018-06-16T11:44:07.511Z,49.70
2018-06-16T11:46:35.590Z,49.70
2018-06-16T11:49:03.663Z,49.70
2018-06-16T11:51:31.731Z,49.60
2018-06-16T11:53:59.813Z,49.60
2018-06-16T11:56:27.878Z,49.70
2018-06-16T11:58:56.175Z,49.60
2018-06-16T12:01:24.259Z,49.60
2018-06-16T12:03:52.818Z,49.60
2018-06-16T12:06:20.886Z,49.50
2018-06-16T12:08:49.278Z,49.50
2018-06-16T12:11:17.343Z,49.50
2018-06-16T12:13:45.426Z,49.50
2018-06-16T12:16:13.478Z,49.50
2018-06-16T12:18:41.564Z,49.50
2018-06-16T12:21:09.621Z,49.50
2018-06-16T12:23:37.994Z,50.10
2018-06-16T12:26:06.066Z,49.40
2018-06-16T12:28:34.222Z,49.50
2018-06-16T12:31:02.291Z,49.40
2018-06-16T12:33:30.574Z,49.40
2018-06-16T12:35:58.703Z,49.50
2018-06-16T12:38:26.774Z,50.00
2018-06-16T12:40:55.088Z,49.40
2018-06-16T12:43:23.372Z,49.40
2018-06-16T12:45:51.747Z,49.40
2018-06-16T12:48:19.837Z,49.60
2018-06-16T12:50:47.950Z,49.90
2018-06-16T12:53:15.992Z,49.40
2018-06-16T12:55:44.058Z,49.40
2018-06-16T12:58:12.139Z,49.40
2018-06-16T13:00:40.298Z,49.40
2018-06-16T13:03:08.423Z,49.40
2018-06-16T13:05:36.761Z,49.30
2018-06-16T13:08:04.834Z,49.30
2018-06-16T13:10:32.902Z,49.20
2018-06-16T13:13:00.964Z,49.20
2018-06-16T13:15:29.030Z,49.20
2018-06-16T13:17:57.110Z,49.10
2018-06-16T13:20:25.170Z,49.10
2018-06-16T13:22:53.239Z,49.10
2018-06-16T13:25:21.310Z,49.10
2018-06-16T13:27:49.387Z,49.10
2018-06-16T13:30:17.463Z,49.10
2018-06-16T13:32:45.542Z,49.00
2018-06-16T13:35:13.629Z,49.10
2018-06-16T13:37:41.706Z,49.00
2018-06-16T13:40:09.791Z,49.00
2018-06-16T13:42:37.866Z,49.00
2018-06-16T13:45:06.014Z,48.90
2018-06-16T13:47:34.095Z,48.90
2018-06-16T13:50:02.170Z,48.90
2018-06-16T13:52:30.551Z,48.90
2018-06-16T13:54:58.638Z,48.90
2018-06-16T13:57:26.721Z,48.90
2018-06-16T13:59:54.818Z,48.90
2018-06-16T14:02:23.195Z,48.80
2018-06-16T14:04:51.273Z,48.80
2018-06-16T14:07:19.439Z,48.80
2018-06-16T14:09:47.532Z,48.80
2018-06-16T14:12:15.602Z,48.80
2018-06-16T14:14:43.686Z,48.80
2018-06-16T14:17:12.074Z,48.80
2018-06-16T14:19:40.138Z,48.80
2018-06-16T14:22:08.214Z,48.80
2018-06-16T14:24:36.323Z,48.80
2018-06-16T14:27:04.435Z,48.80
2018-06-16T14:29:32.511Z,48.70
2018-06-16T14:32:00.577Z,48.80
2018-06-16T14:34:28.674Z,48.70
2018-06-16T14:36:56.739Z,48.70
2018-06-16T14:39:24.810Z,48.60
2018-06-16T14:41:52.883Z,48.60
2018-06-16T14:44:20.959Z,48.60
2018-06-16T14:46:49.029Z,48.60
2018-06-16T14:49:17.343Z,48.60
2018-06-16T14:51:45.399Z,48.60
2018-06-16T14:54:13.470Z,48.60
2018-06-16T14:56:41.766Z,48.60
2018-06-16T14:59:09.835Z,48.60
2018-06-16T15:01:37.900Z,48.60
2018-06-16T15:04:06.286Z,48.60
2018-06-16T15:06:34.357Z,48.50
2018-06-16T15:09:02.435Z,48.50
2018-06-16T15:11:30.499Z,48.50
2018-06-16T15:13:58.563Z,48.50
2018-06-16T15:16:26.786Z,48.50
2018-06-16T15:18:54.874Z,48.50
2018-06-16T15:21:22.943Z,48.50
2018-06-16T15:23:51.011Z,48.50
2018-06-16T15:26:19.090Z,48.40
2018-06-16T15:28:47.167Z,48.40
2018-06-16T15:31:15.536Z,48.30
2018-06-16T15:33:43.595Z,48.40
2018-06-16T15:36:11.712Z,48.40
2018-06-16T15:38:39.782Z,48.30
2018-06-16T15:41:07.964Z,48.30
2018-06-16T15:43:36.053Z,48.30
2018-06-16T15:46:04.127Z,48.50
2018-06-16T15:48:32.207Z,48.60
2018-06-16T15:51:00.274Z,48.70
2018-06-16T15:53:28.454Z,48.70
2018-06-16T15:55:56.526Z,49.00
2018-06-16T15:58:24.602Z,49.00
2018-06-16T16:00:52.905Z,49.30
2018-06-16T16:03:20.965Z,49.30
2018-06-16T16:05:49.060Z,49.70
2018-06-16T16:08:17.134Z,49.70
2018-06-16T16:10:45.214Z,50.40
2018-06-16T16:13:13.687Z,49.30
2018-06-16T16:15:41.806Z,49.50
2018-06-16T16:18:10.195Z,50.10
2018-06-16T16:20:38.283Z,49.60
2018-06-16T16:23:06.345Z,48.90
2018-06-16T16:25:34.434Z,48.90
2018-06-16T16:28:02.619Z,49.00
2018-06-16T16:30:30.989Z,49.00
2018-06-16T16:32:59.038Z,49.00
2018-06-16T16:35:27.119Z,49.00
2018-06-16T16:37:55.638Z,49.00
2018-06-16T16:40:23.942Z,49.00
2018-06-16T16:42:52.011Z,48.90
2018-06-16T16:45:20.339Z,48.90
2018-06-16T16:47:48.415Z,48.80
2018-06-16T16:50:16.485Z,48.80
2018-06-16T16:52:44.558Z,48.90
2018-06-16T16:55:12.927Z,48.80
2018-06-16T16:57:40.991Z,48.80
2018-06-16T17:00:09.070Z,48.80
2018-06-16T17:02:37.142Z,48.70
2018-06-16T17:05:05.218Z,48.70
2018-06-16T17:07:33.300Z,48.80
2018-06-16T17:10:01.395Z,48.80
2018-06-16T17:12:29.478Z,49.00
2018-06-16T17:14:57.542Z,48.80
2018-06-16T17:17:25.614Z,48.80
2018-06-16T17:19:53.678Z,48.50
2018-06-16T17:22:21.749Z,48.60
2018-06-16T17:24:49.848Z,48.30
2018-06-16T17:29:45.850Z,47.80
2018-06-16T17:32:13.935Z,47.10
2018-06-16T17:34:42.258Z,46.20
2018-06-16T17:37:10.571Z,46.10
2018-06-16T17:39:38.644Z,45.90
2018-06-16T17:42:06.963Z,45.80
2018-06-16T17:44:35.034Z,45.50
2018-06-16T17:47:03.110Z,49.90
2018-06-16T17:49:31.174Z,55.80
2018-06-16T17:51:59.260Z,51.20
2018-06-16T17:54:27.438Z,49.60
2018-06-16T17:56:55.502Z,51.50
2018-06-16T17:59:23.570Z,50.70
2018-06-16T18:01:51.655Z,50.70
2018-06-16T18:04:19.810Z,50.00
2018-06-16T18:06:47.884Z,49.80
2018-06-16T18:09:16.171Z,55.80
2018-06-16T18:11:44.253Z,52.70
2018-06-16T18:14:12.327Z,51.70
2018-06-16T18:16:40.394Z,51.60
2018-06-16T18:19:08.474Z,51.10
2018-06-16T18:21:36.547Z,51.00
2018-06-16T18:24:04.633Z,50.50
2018-06-16T18:26:32.710Z,50.70
2018-06-16T18:29:00.826Z,50.60
2018-06-16T18:31:28.900Z,49.80
2018-06-16T18:33:56.971Z,49.80
2018-06-16T18:36:25.055Z,50.10
2018-06-16T18:38:53.113Z,51.90
2018-06-16T18:41:21.186Z,53.30
2018-06-16T18:43:49.283Z,52.10
2018-06-16T18:46:17.359Z,51.60
2018-06-16T18:48:45.431Z,49.80
2018-06-16T18:51:13.501Z,49.60
2018-06-16T18:53:41.787Z,49.40
2018-06-16T18:56:09.908Z,51.10
2018-06-16T18:58:37.982Z,49.80
2018-06-16T19:01:06.202Z,49.60
2018-06-16T19:03:34.235Z,49.30
2018-06-16T19:06:02.370Z,49.30
2018-06-16T19:08:30.739Z,49.20
2018-06-16T19:10:58.853Z,49.30
2018-06-16T19:13:26.898Z,49.20
2018-06-16T19:15:54.965Z,49.20
2018-06-16T19:18:23.047Z,49.20
2018-06-16T19:20:51.387Z,49.10
2018-06-16T19:23:19.516Z,49.20
2018-06-16T19:25:47.590Z,49.10
2018-06-16T19:28:16.152Z,49.20
2018-06-16T19:30:44.228Z,49.10
2018-06-16T19:33:12.311Z,49.30
2018-06-16T19:35:40.379Z,49.30
2018-06-16T19:38:08.453Z,49.30
2018-06-16T19:40:36.518Z,49.20
2018-06-16T19:43:04.676Z,49.20
2018-06-16T19:45:32.743Z,49.10
2018-06-16T19:48:01.131Z,49.10
2018-06-16T19:50:29.187Z,49.00
2018-06-16T19:52:57.258Z,49.10
2018-06-16T19:55:25.327Z,49.10
2018-06-16T19:57:53.400Z,49.10
2018-06-16T20:00:21.531Z,49.10
2018-06-16T20:02:49.601Z,49.00
2018-06-16T20:05:17.666Z,49.50
2018-06-16T20:07:45.766Z,49.00
2018-06-16T20:10:13.841Z,49.10
2018-06-16T20:12:41.919Z,49.00
2018-06-16T20:15:09.982Z,49.00
2018-06-16T20:17:38.063Z,49.10
2018-06-16T20:20:07.142Z,49.70
2018-06-16T20:22:35.251Z,49.20
2018-06-16T20:25:04.191Z,48.60
2018-06-16T20:27:32.258Z,48.80
2018-06-16T20:30:00.407Z,48.80
2018-06-16T20:32:28.475Z,48.80
2018-06-16T20:34:56.539Z,48.80
2018-06-16T20:37:24.658Z,48.80
2018-06-16T20:39:52.722Z,48.80
2018-06-16T20:42:20.799Z,48.70
2018-06-16T20:44:48.870Z,48.80
2018-06-16T20:47:16.942Z,48.80
2018-06-16T20:49:45.010Z,48.70
2018-06-16T20:52:13.126Z,48.70
2018-06-16T20:54:41.190Z,48.70
2018-06-16T20:57:09.263Z,49.80
2018-06-16T20:59:37.381Z,49.20
2018-06-16T21:04:33.406Z,49.20
2018-06-16T21:07:01.470Z,48.50
2018-06-16T21:09:29.543Z,48.90
2018-06-16T21:11:57.605Z,48.30
2018-06-16T21:14:25.966Z,48.40
2018-06-16T21:16:54.166Z,48.40
2018-06-16T21:19:22.238Z,48.40
2018-06-16T21:21:50.298Z,48.50
2018-06-16T21:24:18.701Z,48.50
2018-06-16T21:26:47.011Z,48.60
2018-06-16T21:29:15.105Z,48.60
2018-06-16T21:31:43.171Z,48.60
2018-06-16T21:34:11.254Z,48.60
2018-06-16T21:36:39.323Z,48.70
2018-06-16T21:39:08.534Z,49.30
2018-06-16T21:41:36.599Z,48.60
2018-06-16T21:44:04.690Z,48.60
2018-06-16T21:46:32.764Z,48.60
2018-06-16T21:49:01.223Z,49.00
2018-06-16T21:51:29.394Z,48.30
2018-06-16T21:53:57.466Z,48.60
2018-06-16T21:56:25.819Z,48.50
2018-06-16T21:58:54.479Z,48.50
2018-06-16T22:01:22.549Z,48.50
2018-06-16T22:03:50.622Z,48.50
2018-06-16T22:06:18.691Z,48.50
2018-06-16T22:08:46.770Z,48.50
2018-06-16T22:11:15.244Z,48.50
2018-06-16T22:13:43.335Z,48.50
2018-06-16T22:16:11.412Z,48.50
2018-06-16T22:18:39.501Z,48.60
2018-06-16T22:21:07.566Z,48.60
2018-06-16T22:23:35.627Z,48.60
2018-06-16T22:26:04.690Z,48.70
2018-06-16T22:28:32.763Z,48.80
2018-06-16T22:31:00.835Z,48.90
2018-06-16T22:33:28.903Z,49.00
2018-06-16T22:35:56.982Z,49.00
2018-06-16T22:38:25.190Z,49.20
2018-06-16T22:40:53.262Z,49.30
2018-06-16T22:43:21.699Z,49.30
2018-06-16T22:45:49.875Z,49.30
2018-06-16T22:48:17.946Z,49.40
2018-06-16T22:50:46.022Z,49.40
2018-06-16T22:53:14.103Z,49.50
2018-06-16T22:55:42.399Z,49.70
2018-06-16T22:58:10.461Z,49.60
2018-06-16T23:00:38.530Z,49.50
2018-06-16T23:03:06.630Z,49.60
2018-06-16T23:08:02.643Z,49.60
2018-06-16T23:10:30.986Z,49.60
2018-06-16T23:12:59.050Z,49.50
2018-06-16T23:15:27.123Z,49.70
2018-06-16T23:17:55.203Z,49.80
2018-06-16T23:20:23.354Z,49.70
2018-06-16T23:22:51.618Z,49.80
2018-06-16T23:25:19.706Z,49.90
2018-06-16T23:27:47.774Z,49.80
2018-06-16T23:30:15.850Z,49.90
2018-06-16T23:32:43.935Z,50.00
2018-06-16T23:35:12.015Z,49.80
2018-06-16T23:37:40.098Z,50.00
2018-06-16T23:40:08.178Z,50.00
2018-06-16T23:42:36.246Z,50.10
2018-06-16T23:45:04.474Z,50.00
2018-06-16T23:47:32.534Z,50.00
2018-06-16T23:50:00.602Z,50.00
2018-06-16T23:52:28.687Z,50.00
2018-06-16T23:54:56.778Z,50.00
2018-06-16T23:57:24.874Z,50.00
2018-06-16T23:59:52.950Z,50.10
